Time;durP1;ratioP1;P1;durP2;ratioP2;P2;SDS_P1;SDS_P2;PMS_P1;PMS_P2;Temp;Humidity;BMP_temperature;BMP_pressure;BME280_temperature;BME280_humidity;BME280_pressure;Samples;Min_cycle;Max_cycle;Signal;HPM_P1;HPM_P2
2023/08/10 00:01:08;;;;;;;;;18.00;12.75;;;;;22.22;48.04;101428.59;5039921;28;45341;-66
2023/08/10 00:03:33;;;;;;;;;12.75;10.50;;;;;22.22;47.69;101433.94;5040685;28;45326;-66
2023/08/10 00:05:59;;;;;;;;;13.00;10.50;;;;;22.18;48.42;101432.38;5041036;28;45513;-66
2023/08/10 00:08:25;;;;;;;;;16.50;14.25;;;;;22.14;48.04;101442.38;5040394;28;46906;-66
2023/08/10 00:10:50;;;;;;;;;13.00;13.00;;;;;22.06;47.86;101432.06;5039910;28;45218;-66
2023/08/10 00:13:16;;;;;;;;;14.75;13.50;;;;;22.07;48.26;101433.81;5034760;28;45209;-66
2023/08/10 00:15:43;;;;;;;;;15.50;15.25;;;;;22.04;48.12;101428.59;5020421;28;45513;-66
2023/08/10 00:18:09;;;;;;;;;13.00;13.00;;;;;22.01;48.05;101427.91;5020463;28;46136;-66
2023/08/10 00:20:34;;;;;;;;;14.50;12.00;;;;;21.97;48.32;101424.50;5020234;28;45310;-66
2023/08/10 00:22:59;;;;;;;;;15.25;13.50;;;;;21.94;48.37;101432.72;5020479;28;45432;-66
2023/08/10 00:25:25;;;;;;;;;16.75;13.25;;;;;21.93;48.41;101428.28;5020494;28;45518;-66
2023/08/10 00:27:50;;;;;;;;;16.75;10.25;;;;;21.87;48.56;101429.50;5020329;28;46115;-66
2023/08/10 00:30:16;;;;;;;;;15.50;14.00;;;;;21.88;48.39;101433.03;5020107;28;45365;-66
2023/08/10 00:32:41;;;;;;;;;17.25;13.00;;;;;21.87;48.81;101436.63;5020314;28;45444;-66
2023/08/10 00:35:07;;;;;;;;;13.50;12.50;;;;;21.86;48.79;101429.53;5020332;28;45514;-66
2023/08/10 00:37:32;;;;;;;;;13.25;13.00;;;;;21.83;48.63;101424.38;5020136;28;45959;-66
2023/08/10 00:39:58;;;;;;;;;11.50;11.00;;;;;21.82;48.46;101428.84;5020273;28;45266;-66
2023/08/10 00:42:23;;;;;;;;;14.50;14.00;;;;;21.81;48.37;101423.56;5020481;28;45684;-66
2023/08/10 00:44:49;;;;;;;;;13.00;12.50;;;;;21.77;48.67;101425.53;5020267;28;45400;-66
2023/08/10 00:47:15;;;;;;;;;13.25;11.50;;;;;21.72;48.99;101420.44;5018625;28;47418;-66
2023/08/10 00:49:40;;;;;;;;;14.00;13.00;;;;;21.69;48.77;101414.38;5020268;28;45278;-66
2023/08/10 00:52:06;;;;;;;;;15.50;13.00;;;;;21.71;48.91;101424.03;5020173;28;45273;-66
2023/08/10 00:54:32;;;;;;;;;14.50;11.00;;;;;21.70;48.90;101424.13;5020255;28;45515;-66
2023/08/10 00:56:58;;;;;;;;;13.75;12.50;;;;;21.70;48.66;101426.81;5019734;28;46399;-66
2023/08/10 00:59:27;;;;;;;;;13.50;12.50;;;;;21.68;48.85;101426.00;5030514;28;45214;-66
2023/08/10 01:01:52;;;;;;;;;13.00;13.00;;;;;21.67;49.02;101429.63;5039791;28;45325;-66
2023/08/10 01:04:17;;;;;;;;;16.25;14.75;;;;;21.66;49.16;101430.56;5039796;28;45345;-66
2023/08/10 01:07:05;;;;;;;;;15.50;15.00;;;;;21.63;49.18;101436.06;5036050;28;45484;-66
2023/08/10 01:09:45;;;;;;;;;17.00;17.00;;;;;21.59;49.23;101438.88;5037962;28;45452;-66
2023/08/10 01:12:28;;;;;;;;;13.25;12.75;;;;;21.57;49.38;101440.78;5024883;28;45550;-66
2023/08/10 01:15:16;;;;;;;;;15.00;13.75;;;;;21.53;49.49;101440.97;5038240;28;45270;-66
2023/08/10 01:17:52;;;;;;;;;15.50;13.75;;;;;21.49;49.09;101442.91;5023562;28;45262;-65
2023/08/10 01:20:19;;;;;;;;;14.00;11.50;;;;;21.47;49.82;101451.97;5028307;28;45373;-66
2023/08/10 01:23:01;;;;;;;;;15.00;14.50;;;;;21.43;49.85;101449.44;5023521;28;45472;-66
2023/08/10 01:25:27;;;;;;;;;21.75;16.75;;;;;21.39;49.53;101449.66;5001264;28;45496;-66
2023/08/10 01:27:54;;;;;;;;;17.25;16.50;;;;;21.39;49.65;101442.50;5019324;28;45448;-66
2023/08/10 01:30:20;;;;;;;;;15.00;13.75;;;;;21.37;49.44;101455.09;5019558;28;45254;-66
2023/08/10 01:32:45;;;;;;;;;15.50;15.50;;;;;21.33;49.94;101448.13;5019423;28;45474;-66
2023/08/10 01:35:10;;;;;;;;;15.75;15.75;;;;;21.33;49.85;101448.13;5019601;28;45429;-66
2023/08/10 01:37:37;;;;;;;;;19.50;17.25;;;;;21.33;49.40;101455.31;5019347;28;45151;-66
2023/08/10 01:40:11;;;;;;;;;18.50;16.50;;;;;21.30;50.12;101450.97;5019613;28;45248;-66
2023/08/10 01:42:37;;;;;;;;;16.75;15.00;;;;;21.27;49.86;101446.63;5001507;28;45338;-66
2023/08/10 01:45:04;;;;;;;;;17.25;16.00;;;;;21.26;49.54;101447.56;5019505;28;45216;-66
2023/08/10 01:47:54;;;;;;;;;17.50;17.50;;;;;21.25;50.26;101451.19;5019055;28;45586;-66
2023/08/10 01:50:24;;;;;;;;;18.50;17.25;;;;;21.22;49.76;101451.34;5004717;28;45315;-66
2023/08/10 01:52:56;;;;;;;;;17.75;15.75;;;;;21.21;49.66;101452.28;5019547;28;45250;-66
2023/08/10 01:55:22;;;;;;;;;22.75;21.00;;;;;21.21;50.29;101448.75;5019067;28;45249;-66
2023/08/10 01:57:49;;;;;;;;;18.25;17.75;;;;;21.19;50.09;101453.28;5017915;28;47206;-66
2023/08/10 02:00:14;;;;;;;;;17.25;16.75;;;;;21.17;49.80;101456.03;5036436;28;45284;-66
2023/08/10 02:02:40;;;;;;;;;18.00;17.25;;;;;21.17;50.13;101458.72;5038904;28;45661;-65
2023/08/10 02:05:06;;;;;;;;;18.25;16.75;;;;;21.15;50.38;101463.25;5037578;28;46748;-66
2023/08/10 02:07:32;;;;;;;;;16.75;15.50;;;;;21.12;50.06;101463.41;5039131;28;45409;-66
2023/08/10 02:09:57;;;;;;;;;22.75;19.50;;;;;21.10;50.59;101458.13;5038683;28;45392;-65
2023/08/10 02:12:23;;;;;;;;;20.00;17.75;;;;;21.08;50.61;101454.69;5039241;28;45371;-65
2023/08/10 02:14:49;;;;;;;;;21.00;18.00;;;;;21.07;50.55;101457.44;5038875;28;45341;-65
2023/08/10 02:17:15;;;;;;;;;21.00;17.25;;;;;21.03;50.49;101448.69;5038526;28;45692;-65
2023/08/10 02:19:40;;;;;;;;;19.50;17.50;;;;;21.02;50.17;101451.41;5038847;28;45308;-65
2023/08/10 02:22:06;;;;;;;;;18.75;17.25;;;;;21.02;50.51;101452.28;5038887;28;45293;-65
2023/08/10 02:24:31;;;;;;;;;19.00;16.50;;;;;20.96;50.05;101449.91;5038901;28;45603;-65
2023/08/10 02:26:56;;;;;;;;;18.25;17.00;;;;;20.97;50.33;101445.41;5038576;28;45382;-65
2023/08/10 02:29:22;;;;;;;;;15.25;15.25;;;;;20.97;50.53;101448.09;5038762;28;46238;-65
2023/08/10 02:31:47;;;;;;;;;16.75;14.00;;;;;20.94;50.60;101446.44;5027434;28;45726;-65
2023/08/10 02:34:13;;;;;;;;;16.00;14.25;;;;;20.94;50.43;101446.44;5022044;28;45298;-65
2023/08/10 02:36:38;;;;;;;;;16.00;14.75;;;;;20.92;50.43;101442.97;5019760;28;46278;-65
2023/08/10 02:39:05;;;;;;;;;19.75;16.25;;;;;20.92;50.58;101448.31;5022238;28;45283;-66
2023/08/10 02:41:30;;;;;;;;;12.00;9.50;;;;;20.87;50.84;101451.19;5022365;28;45420;-65
2023/08/10 02:43:55;;;;;;;;;15.75;13.75;;;;;20.89;50.46;101451.13;5022027;28;45317;-65
2023/08/10 02:46:21;;;;;;;;;14.75;13.25;;;;;20.87;50.46;101451.19;5020628;28;47222;-65
2023/08/10 02:48:46;;;;;;;;;16.25;16.00;;;;;20.84;51.12;101445.13;5022021;28;45344;-65
2023/08/10 02:51:12;;;;;;;;;14.75;14.00;;;;;20.83;50.83;101454.06;5022329;28;45329;-65
2023/08/10 02:53:37;;;;;;;;;13.50;13.00;;;;;20.83;50.49;101446.06;5022208;28;45443;-65
2023/08/10 02:56:02;;;;;;;;;15.00;14.00;;;;;20.79;50.92;101448.00;5021521;28;51275;-65
2023/08/10 02:58:29;;;;;;;;;16.25;12.00;;;;;20.78;51.01;101455.16;5007095;28;45328;-65
2023/08/10 03:00:54;;;;;;;;;15.75;14.25;;;;;20.78;50.69;101457.81;5041711;28;45490;-65
2023/08/10 03:03:20;;;;;;;;;16.25;16.25;;;;;20.76;51.13;101458.84;5041657;28;45426;-65
2023/08/10 03:05:45;;;;;;;;;15.75;13.25;;;;;20.76;50.93;101458.84;5041724;28;45449;-66
2023/08/10 03:08:10;;;;;;;;;16.00;14.25;;;;;20.75;50.68;101449.97;5041705;28;45212;-65
2023/08/10 03:10:36;;;;;;;;;15.00;14.00;;;;;20.71;50.64;101451.03;5041712;28;45233;-65
2023/08/10 03:13:02;;;;;;;;;19.75;16.75;;;;;20.70;51.07;101441.25;5041635;28;45338;-65
2023/08/10 03:15:27;;;;;;;;;13.75;11.75;;;;;20.70;50.74;101437.72;5041485;28;46210;-65
2023/08/10 03:17:54;;;;;;;;;12.25;11.25;;;;;20.68;50.74;101439.59;5041359;28;45723;-65
2023/08/10 03:20:19;;;;;;;;;13.25;12.25;;;;;20.66;50.89;101437.00;5040387;28;45262;-65
2023/08/10 03:22:44;;;;;;;;;15.50;12.25;;;;;20.65;50.86;101443.25;5041470;28;45487;-65
2023/08/10 03:25:11;;;;;;;;;14.00;12.25;;;;;20.63;50.58;101439.81;5041255;28;46065;-66
2023/08/10 03:27:36;;;;;;;;;12.25;12.25;;;;;20.61;50.85;101437.19;5040886;28;45317;-65
2023/08/10 03:30:03;;;;;;;;;13.50;11.75;;;;;20.58;51.39;101436.50;5041570;28;45364;-65
2023/08/10 03:32:29;;;;;;;;;17.50;12.00;;;;;20.58;51.20;101444.50;5041156;28;45568;-65
2023/08/10 03:34:54;;;;;;;;;10.00;9.50;;;;;20.57;51.27;101446.28;5041361;28;45623;-65
2023/08/10 03:37:20;;;;;;;;;9.25;9.25;;;;;20.56;51.34;101446.34;5041159;28;45234;-65
2023/08/10 03:39:45;;;;;;;;;8.50;6.25;;;;;20.53;50.80;101442.03;5041522;28;45245;-65
2023/08/10 03:42:10;;;;;;;;;9.75;9.75;;;;;20.54;51.20;101445.56;5041234;28;45254;-65
2023/08/10 03:44:36;;;;;;;;;9.75;8.25;;;;;20.52;50.75;101436.75;5022728;28;45532;-65
2023/08/10 03:47:01;;;;;;;;;8.50;8.50;;;;;20.51;51.29;101451.03;5039485;28;45443;-65
2023/08/10 03:49:26;;;;;;;;;11.50;9.25;;;;;20.49;50.87;101453.78;5041342;28;45511;-65
2023/08/10 03:51:52;;;;;;;;;9.25;8.00;;;;;20.48;50.71;101448.50;5041136;28;45242;-65
2023/08/10 03:54:17;;;;;;;;;10.00;10.00;;;;;20.43;51.37;101449.56;5040969;28;46307;-65
2023/08/10 03:56:43;;;;;;;;;10.50;9.75;;;;;20.44;51.23;101447.78;5040783;28;45259;-65
2023/08/10 03:59:09;;;;;;;;;9.25;7.25;;;;;20.39;51.07;101450.66;5041189;28;45232;-65
2023/08/10 04:01:34;;;;;;;;;10.00;8.00;;;;;20.39;50.78;101450.66;5040738;28;45416;-65
2023/08/10 04:04:00;;;;;;;;;9.50;8.50;;;;;20.37;51.36;101457.84;5030193;28;45982;-65
2023/08/10 04:06:25;;;;;;;;;9.75;8.75;;;;;20.36;51.25;101468.59;5040778;28;45425;-65
2023/08/10 04:08:51;;;;;;;;;8.00;8.00;;;;;20.34;51.04;101474.00;5027815;28;45384;-65
2023/08/10 04:11:16;;;;;;;;;10.25;9.00;;;;;20.31;50.92;101479.47;5026109;28;45411;-65
2023/08/10 04:13:41;;;;;;;;;10.00;8.00;;;;;20.29;51.25;101482.22;5038045;28;46205;-65
2023/08/10 04:16:07;;;;;;;;;11.00;8.00;;;;;20.28;51.24;101476.94;5039198;28;45433;-65
2023/08/10 04:18:33;;;;;;;;;8.25;7.25;;;;;20.25;50.93;101469.06;5003109;28;45493;-65
2023/08/10 04:20:59;;;;;;;;;6.25;6.00;;;;;20.19;51.47;101454.19;5020698;28;45437;-65
2023/08/10 04:23:25;;;;;;;;;9.25;8.25;;;;;20.23;51.55;101450.44;5019020;28;47525;-65
2023/08/10 04:25:50;;;;;;;;;7.00;5.50;;;;;20.22;51.35;101461.19;5020262;28;48933;-65
2023/08/10 04:28:15;;;;;;;;;8.50;7.00;;;;;20.21;51.08;101470.13;5020972;28;45476;-65
2023/08/10 04:30:41;;;;;;;;;7.25;7.25;;;;;20.19;51.50;101472.88;5020338;28;45267;-65
2023/08/10 04:33:07;;;;;;;;;7.25;7.00;;;;;20.19;51.51;101472.88;5020578;28;46044;-65
2023/08/10 04:35:33;;;;;;;;;7.75;6.50;;;;;20.16;50.97;101459.66;5020485;28;45304;-65
2023/08/10 04:37:58;;;;;;;;;5.50;5.50;;;;;20.17;51.08;101466.72;5020634;28;45303;-65
2023/08/10 04:40:24;;;;;;;;;7.50;7.00;;;;;20.16;51.04;101474.81;5020269;28;45560;-65
2023/08/10 04:42:50;;;;;;;;;7.50;6.00;;;;;20.15;51.05;101473.94;5019680;28;46163;-65
2023/08/10 04:45:16;;;;;;;;;6.50;6.50;;;;;20.13;50.90;101476.66;5002503;28;45373;-65
2023/08/10 04:47:42;;;;;;;;;9.75;6.75;;;;;20.10;51.05;101468.78;5020276;28;45371;-65
2023/08/10 04:50:07;;;;;;;;;7.50;6.00;;;;;20.11;50.97;101472.31;5020230;28;45430;-65
2023/08/10 04:52:33;;;;;;;;;7.50;7.50;;;;;20.11;51.39;101478.53;5020154;28;46889;-65
2023/08/10 04:54:58;;;;;;;;;38.00;30.25;;;;;20.09;51.04;101482.22;5019870;28;45476;-65
2023/08/10 04:57:23;;;;;;;;;12.50;11.25;;;;;20.04;51.51;101474.38;5020465;28;45370;-65
2023/08/10 04:59:49;;;;;;;;;9.50;8.25;;;;;20.05;51.61;101473.47;5033043;28;45540;-65
2023/08/10 05:02:14;;;;;;;;;6.75;6.75;;;;;20.00;51.46;101472.78;5037943;28;47479;-65
2023/08/10 05:04:40;;;;;;;;;9.00;6.75;;;;;20.03;51.42;101480.66;5039908;28;45260;-65
2023/08/10 05:07:06;;;;;;;;;8.75;8.25;;;;;20.02;51.05;101473.56;5040175;28;45365;-65
2023/08/10 05:09:31;;;;;;;;;8.00;7.00;;;;;20.00;51.39;101470.13;5039825;28;45492;-65
2023/08/10 05:11:56;;;;;;;;;6.75;6.75;;;;;20.02;51.62;101467.38;5039754;28;46292;-65
2023/08/10 05:14:21;;;;;;;;;3.25;3.25;;;;;20.00;51.67;101470.13;5038456;28;45264;-65
2023/08/10 05:16:47;;;;;;;;;6.00;6.00;;;;;20.01;51.35;101471.84;5039261;28;53783;-65
2023/08/10 05:19:13;;;;;;;;;5.00;5.00;;;;;20.02;51.45;101478.91;5037865;28;45314;-65
2023/08/10 05:21:38;;;;;;;;;8.50;6.50;;;;;20.01;51.54;101482.50;5039514;28;46353;-65
2023/08/10 05:24:04;;;;;;;;;8.00;6.75;;;;;20.01;51.15;101487.84;5039936;28;45228;-65
2023/08/10 05:26:30;;;;;;;;;10.00;7.75;;;;;19.98;51.81;101490.66;5039596;28;45241;-65
2023/08/10 05:28:55;;;;;;;;;11.50;8.50;;;;;19.97;51.98;101491.59;5039722;28;45216;-65
2023/08/10 05:31:21;;;;;;;;;8.00;8.00;;;;;19.96;51.48;101495.16;5037169;28;45365;-65
2023/08/10 05:33:46;;;;;;;;;12.00;10.25;;;;;19.94;51.47;101491.72;5026804;28;45398;-65
2023/08/10 05:36:11;;;;;;;;;7.50;6.50;;;;;19.92;52.02;101477.56;5019415;28;45308;-65
2023/08/10 05:38:38;;;;;;;;;7.00;6.25;;;;;19.91;51.48;101481.16;5019815;28;45344;-65
2023/08/10 05:41:04;;;;;;;;;8.00;7.00;;;;;19.91;51.43;101470.50;5019132;28;47049;-65
2023/08/10 05:43:29;;;;;;;;;8.25;6.50;;;;;19.88;51.96;101471.50;5001921;28;45376;-65
2023/08/10 05:45:54;;;;;;;;;7.50;7.50;;;;;19.93;51.94;101472.16;5019212;28;45444;-65
2023/08/10 05:48:20;;;;;;;;;6.50;6.50;;;;;19.94;51.34;101471.25;5019562;28;45413;-65
2023/08/10 05:50:45;;;;;;;;;5.75;4.75;;;;;19.96;51.44;101484.50;5019158;28;45272;-65
2023/08/10 05:53:11;;;;;;;;;6.25;6.25;;;;;19.96;51.76;101472.06;5019496;28;45267;-65
2023/08/10 05:55:36;;;;;;;;;6.25;6.00;;;;;19.97;51.47;101475.56;5019234;28;45233;-65
2023/08/10 05:58:01;;;;;;;;;5.00;4.00;;;;;19.97;51.50;101463.13;5019377;28;45388;-65
2023/08/10 06:00:27;;;;;;;;;4.50;4.00;;;;;20.01;51.93;101466.50;5036783;28;45587;-65
2023/08/10 06:02:52;;;;;;;;;6.75;6.00;;;;;20.03;51.49;101467.31;5039334;28;45259;-65
2023/08/10 06:05:18;;;;;;;;;6.75;5.00;;;;;20.05;52.04;101462.78;5037834;28;45364;-65
2023/08/10 06:07:47;;;;;;;;;6.00;6.00;;;;;20.06;51.96;101452.97;5030494;28;45504;-65
2023/08/10 06:10:13;;;;;;;;;4.75;4.75;;;;;20.08;51.54;101457.31;5019948;28;47120;-65
2023/08/10 06:12:38;;;;;;;;;7.00;7.00;;;;;20.12;51.71;101455.38;5031491;28;45318;-66
2023/08/10 06:15:04;;;;;;;;;6.50;6.50;;;;;20.13;51.52;101452.66;5022753;28;45346;-65
2023/08/10 06:17:30;;;;;;;;;6.50;6.50;;;;;20.17;51.63;101453.38;5022606;28;45323;-65
2023/08/10 06:19:57;;;;;;;;;7.00;6.50;;;;;20.19;51.58;101446.19;5022437;28;46333;-65
2023/08/10 06:22:22;;;;;;;;;7.00;4.00;;;;;20.21;51.15;101449.63;5022421;28;45278;-66
2023/08/10 06:24:47;;;;;;;;;5.00;5.00;;;;;20.25;51.52;101448.59;5022557;28;45222;-65
2023/08/10 06:27:13;;;;;;;;;5.50;5.00;;;;;20.27;52.06;101452.03;5022444;28;45635;-66
2023/08/10 06:29:38;;;;;;;;;5.00;5.00;;;;;20.32;51.59;101453.66;5022296;28;45959;-65
2023/08/10 06:32:07;;;;;;;;;4.00;4.00;;;;;20.34;51.83;101449.09;5025833;28;45241;-66
2023/08/10 06:34:34;;;;;;;;;6.25;5.75;;;;;20.36;51.40;101453.44;5022760;28;45342;-66
2023/08/10 06:36:59;;;;;;;;;4.00;3.75;;;;;20.39;52.02;101445.31;5022203;28;45483;-66
2023/08/10 06:39:27;;;;;;;;;6.00;4.00;;;;;20.42;51.24;101447.84;5022084;28;45476;-66
2023/08/10 06:41:52;;;;;;;;;6.50;6.00;;;;;20.46;51.31;101451.25;5022159;28;45234;-67
2023/08/10 06:44:18;;;;;;;;;4.00;4.00;;;;;20.49;51.33;101444.88;5022179;28;45259;-66
2023/08/10 06:46:43;;;;;;;;;5.00;4.00;;;;;20.52;51.35;101447.44;5021945;28;45408;-65
2023/08/10 06:49:08;;;;;;;;;4.50;4.00;;;;;20.55;51.66;101444.63;5022042;28;45171;-66
2023/08/10 06:51:34;;;;;;;;;4.50;4.50;;;;;20.57;51.34;101446.28;5022235;28;45421;-65
2023/08/10 06:53:59;;;;;;;;;9.00;7.00;;;;;20.59;51.26;101443.53;5022193;28;45329;-66
2023/08/10 06:56:24;;;;;;;;;6.75;5.25;;;;;20.63;51.28;101438.00;5021936;28;45188;-66
2023/08/10 06:58:51;;;;;;;;;12.00;11.00;;;;;20.68;51.75;101428.91;5027679;28;48311;-65
2023/08/10 07:01:17;;;;;;;;;8.00;6.00;;;;;20.71;51.29;101421.66;5040487;28;45437;-65
2023/08/10 07:03:42;;;;;;;;;5.00;5.00;;;;;20.74;51.41;101423.31;5041839;28;45341;-66
2023/08/10 07:06:07;;;;;;;;;6.00;6.00;;;;;20.80;51.52;101417.69;5041982;28;45316;-65
2023/08/10 07:08:33;;;;;;;;;8.50;5.25;;;;;20.85;51.64;101422.81;5041541;28;50691;-66
2023/08/10 07:11:02;;;;;;;;;12.75;12.50;;;;;20.91;51.50;101427.88;5041682;28;45388;-66
2023/08/10 07:13:27;;;;;;;;;7.50;6.25;;;;;20.89;51.32;101408.38;5041659;28;45242;-65
2023/08/10 07:15:53;;;;;;;;;5.25;4.75;;;;;20.97;51.34;101419.59;5041445;28;45234;-66
2023/08/10 07:18:18;;;;;;;;;6.00;4.50;;;;;21.01;51.62;101409.63;5041523;28;45318;-65
2023/08/10 07:20:43;;;;;;;;;3.00;3.00;;;;;21.06;51.72;101408.44;5041251;28;45218;-66
2023/08/10 07:23:11;;;;;;;;;4.50;4.50;;;;;21.10;51.33;101407.34;5040607;28;45163;-66
2023/08/10 07:25:37;;;;;;;;;6.00;6.00;;;;;21.15;51.35;101414.31;5041382;28;45535;-65
2023/08/10 07:28:04;;;;;;;;;6.25;4.75;;;;;21.18;51.70;101427.50;5041455;28;47154;-66
2023/08/10 07:30:30;;;;;;;;;5.25;4.00;;;;;21.21;51.06;101432.72;5041246;28;45365;-65
2023/08/10 07:32:55;;;;;;;;;5.50;4.00;;;;;21.24;51.35;101444.13;5041486;28;45218;-66
2023/08/10 07:35:21;;;;;;;;;3.00;3.00;;;;;21.27;51.67;101454.66;5041460;28;45274;-66
2023/08/10 07:37:48;;;;;;;;;5.50;5.50;;;;;21.30;51.26;101463.47;5041219;28;47055;-66
2023/08/10 07:40:13;;;;;;;;;5.75;5.00;;;;;21.34;51.46;101467.72;5041323;28;45353;-66
2023/08/10 07:42:39;;;;;;;;;4.25;3.50;;;;;21.35;51.18;101475.66;5039006;28;45483;-66
2023/08/10 07:45:05;;;;;;;;;7.25;7.25;;;;;21.39;51.50;101489.75;5041210;28;45483;-66
2023/08/10 07:47:30;;;;;;;;;8.00;5.50;;;;;21.39;51.23;101482.59;5040645;28;45241;-66
2023/08/10 07:49:55;;;;;;;;;5.50;5.50;;;;;21.43;51.46;101484.19;5041158;28;45497;-66
2023/08/10 07:52:20;;;;;;;;;9.25;6.50;;;;;21.48;51.25;101483.09;5039809;28;45411;-66
2023/08/10 07:54:46;;;;;;;;;5.25;5.25;;;;;21.49;51.72;101485.69;5041004;28;47797;-65
2023/08/10 07:57:11;;;;;;;;;5.75;5.25;;;;;21.52;51.46;101479.34;5040535;28;46014;-65
2023/08/10 07:59:37;;;;;;;;;9.75;7.50;;;;;21.56;50.98;101483.66;5040909;28;45428;-65
2023/08/10 08:02:02;;;;;;;;;6.75;6.00;;;;;21.58;51.53;101471.94;5040723;28;45436;-65
2023/08/10 08:04:27;;;;;;;;;5.50;5.50;;;;;21.66;51.26;101481.34;5040929;28;45438;-65
2023/08/10 08:06:53;;;;;;;;;6.75;4.25;;;;;21.71;51.62;101479.31;5040664;28;45406;-65
2023/08/10 08:09:18;;;;;;;;;7.50;5.75;;;;;21.76;51.32;101488.00;5022869;28;45348;-65
2023/08/10 08:11:44;;;;;;;;;5.25;5.25;;;;;21.82;51.41;101493.03;5040667;28;45401;-66
2023/08/10 08:14:09;;;;;;;;;5.00;4.50;;;;;21.87;51.34;101495.50;5040960;28;45301;-65
2023/08/10 08:16:34;;;;;;;;;4.25;4.25;;;;;21.94;51.50;101502.28;5040347;28;45369;-65
2023/08/10 08:19:00;;;;;;;;;5.25;5.00;;;;;22.00;51.51;101510.00;5040776;28;45333;-65
2023/08/10 08:21:27;;;;;;;;;3.75;3.75;;;;;22.08;51.55;101510.44;5039584;28;45242;-65
2023/08/10 08:23:54;;;;;;;;;6.00;6.00;;;;;22.18;51.18;101512.69;5040369;28;45365;-65
2023/08/10 08:26:21;;;;;;;;;6.25;6.25;;;;;22.28;51.60;101513.94;5040225;28;45277;-66
2023/08/10 08:28:47;;;;;;;;;4.00;3.00;;;;;22.37;51.50;101515.31;5040496;28;45300;-66
2023/08/10 08:31:13;;;;;;;;;3.75;3.75;;;;;22.47;51.25;101524.59;5039866;28;45381;-65
2023/08/10 08:33:39;;;;;;;;;5.00;5.00;;;;;22.54;51.56;101517.97;5040466;28;45318;-66
2023/08/10 08:36:06;;;;;;;;;5.00;5.00;;;;;22.64;51.34;101536.22;5040123;28;45357;-65
2023/08/10 08:38:32;;;;;;;;;8.25;5.25;;;;;22.73;51.21;101527.72;5040532;28;45409;-65
2023/08/10 08:41:05;;;;;;;;;4.00;4.00;;;;;22.81;51.23;101521.94;5039311;28;45260;-65
2023/08/10 08:43:31;;;;;;;;;5.50;5.50;;;;;22.89;51.18;101514.34;5040375;28;45256;-66
2023/08/10 08:45:58;;;;;;;;;5.75;5.00;;;;;22.94;51.45;101504.25;5040006;28;45389;-65
2023/08/10 08:48:25;;;;;;;;;7.00;6.00;;;;;23.03;51.54;101509.13;5040200;28;45218;-66
2023/08/10 08:50:51;;;;;;;;;4.00;4.00;;;;;23.10;51.40;101500.75;5040371;28;45182;-66
2023/08/10 08:53:17;;;;;;;;;6.75;6.75;;;;;23.16;50.81;101497.75;5040114;28;45321;-66
2023/08/10 08:55:43;;;;;;;;;5.00;5.00;;;;;23.22;50.90;101484.03;5039794;28;47064;-66
2023/08/10 08:58:08;;;;;;;;;5.00;4.50;;;;;23.30;50.90;101484.44;5039868;28;45331;-66
2023/08/10 09:00:34;;;;;;;;;6.00;6.00;;;;;23.34;50.88;101479.78;5040205;28;45314;-66
2023/08/10 09:03:01;;;;;;;;;5.75;5.75;;;;;23.41;50.92;101466.88;5039983;28;45494;-66
2023/08/10 09:05:28;;;;;;;;;5.00;5.00;;;;;23.47;50.82;101463.84;5026641;28;46222;-66
2023/08/10 09:07:54;;;;;;;;;15.25;14.25;;;;;23.53;50.71;101458.13;5038534;28;45287;-66
2023/08/10 09:10:20;;;;;;;;;4.00;4.00;;;;;23.59;50.64;101448.88;5040038;28;45245;-67
2023/08/10 09:12:47;;;;;;;;;9.25;8.00;;;;;23.64;50.63;101447.63;5039719;28;45404;-67
2023/08/10 09:15:18;;;;;;;;;8.25;6.00;;;;;23.68;50.58;101438.47;5039491;28;46149;-67
2023/08/10 09:17:52;;;;;;;;;5.50;5.50;;;;;23.77;50.71;101438.88;5039652;28;45329;-67
2023/08/10 09:20:22;;;;;;;;;7.00;7.00;;;;;23.83;50.56;101435.81;5039964;28;45237;-67
2023/08/10 09:22:51;;;;;;;;;6.00;6.00;;;;;23.87;50.57;101429.31;5018309;28;45453;-67
2023/08/10 09:25:17;;;;;;;;;1.00;1.00;;;;;23.96;50.73;101431.50;5019511;28;45198;-67
2023/08/10 09:27:42;;;;;;;;;4.00;4.00;;;;;24.00;50.79;101424.97;5035048;28;45348;-67
2023/08/10 09:30:08;;;;;;;;;4.75;4.75;;;;;24.09;50.79;101434.31;5019783;28;45172;-66
2023/08/10 09:32:34;;;;;;;;;2.75;2.75;;;;;24.17;50.37;101441.88;5019655;28;45415;-64
2023/08/10 09:35:00;;;;;;;;;5.25;5.25;;;;;24.22;50.26;101434.41;5019419;28;46267;-64
2023/08/10 09:37:26;;;;;;;;;5.00;4.75;;;;;24.32;50.17;101434.72;5019630;28;45267;-64
2023/08/10 09:39:56;;;;;;;;;5.75;4.25;;;;;24.40;50.01;101440.50;5019575;28;45289;-66
2023/08/10 09:42:23;;;;;;;;;4.75;4.75;;;;;24.48;50.05;101434.66;5035020;28;45409;-64
2023/08/10 09:44:50;;;;;;;;;5.00;5.00;;;;;24.55;50.24;101432.44;5020024;28;46216;-64
2023/08/10 09:47:17;;;;;;;;;3.00;3.00;;;;;24.62;49.95;101436.47;5025673;28;45282;-65
2023/08/10 09:49:56;;;;;;;;;5.00;4.50;;;;;24.71;50.14;101443.13;5026214;28;45430;-64
2023/08/10 09:52:25;;;;;;;;;4.25;4.25;;;;;24.77;50.42;101430.16;5024510;28;45455;-65
2023/08/10 09:54:53;;;;;;;;;6.00;4.00;;;;;24.86;50.39;101436.75;5025892;28;46410;-65
2023/08/10 09:57:19;;;;;;;;;4.00;4.00;;;;;24.93;49.78;101431.84;5025833;28;45249;-65
2023/08/10 09:59:46;;;;;;;;;4.00;4.00;;;;;24.99;50.05;101424.28;5026025;28;45478;-65
2023/08/10 10:02:11;;;;;;;;;5.00;5.00;;;;;25.04;50.18;101404.28;5025712;28;45666;-65
2023/08/10 10:04:40;;;;;;;;;5.00;3.00;;;;;25.14;50.04;101405.41;5025845;28;45343;-65
2023/08/10 10:07:08;;;;;;;;;6.00;4.00;;;;;25.22;50.06;101408.47;5025899;28;45632;-65
2023/08/10 10:09:38;;;;;;;;;4.50;3.25;;;;;25.33;50.11;101413.13;5026059;28;45322;-66
2023/08/10 10:12:07;;;;;;;;;3.50;2.25;;;;;25.41;49.41;101404.59;5025721;28;45163;-66
2023/08/10 10:14:35;;;;;;;;;2.75;2.75;;;;;25.51;49.32;101397.63;5025577;28;46495;-66
2023/08/10 10:17:02;;;;;;;;;4.75;3.00;;;;;25.57;49.92;101394.53;5025425;28;45452;-66
2023/08/10 10:19:28;;;;;;;;;3.75;3.00;;;;;25.66;49.56;101392.16;5025850;28;45301;-66
2023/08/10 10:21:54;;;;;;;;;4.25;4.25;;;;;25.72;49.35;101403.41;5028034;28;45349;-66
2023/08/10 10:24:19;;;;;;;;;5.75;4.25;;;;;25.79;49.59;101398.44;5045601;28;45210;-66
2023/08/10 10:26:59;;;;;;;;;4.00;4.00;;;;;25.87;49.29;101395.22;5045512;28;45301;-66
2023/08/10 10:29:41;;;;;;;;;5.00;5.00;;;;;25.94;48.88;101394.69;5045791;28;45355;-66
2023/08/10 10:32:21;;;;;;;;;4.00;4.00;;;;;26.00;49.28;101403.31;5045325;28;45455;-66
2023/08/10 10:34:49;;;;;;;;;4.00;4.00;;;;;26.09;48.60;101391.94;5045440;28;45242;-66
2023/08/10 10:37:30;;;;;;;;;5.25;5.25;;;;;26.19;49.48;101382.25;5045473;28;45520;-66
2023/08/10 10:40:16;;;;;;;;;1.50;1.50;;;;;26.34;48.78;101387.50;5045563;28;45357;-66
2023/08/10 10:43:00;;;;;;;;;4.00;4.00;;;;;26.48;48.74;101379.31;5045406;28;45236;-66
2023/08/10 10:45:25;;;;;;;;;2.00;2.00;;;;;26.63;48.65;101374.66;5037195;28;46357;-66
2023/08/10 10:47:51;;;;;;;;;6.00;3.75;;;;;26.78;48.81;101356.53;5025379;28;45220;-66
2023/08/10 10:50:23;;;;;;;;;2.00;2.00;;;;;26.91;49.18;101357.34;5025447;28;45227;-66
2023/08/10 10:53:00;;;;;;;;;4.00;3.25;;;;;27.13;48.50;101349.50;5025275;28;45360;-66
2023/08/10 10:55:28;;;;;;;;;3.00;3.00;;;;;27.31;48.86;101353.50;5024908;28;46179;-66
2023/08/10 10:57:54;;;;;;;;;5.50;3.75;;;;;27.47;48.61;101345.16;5021047;28;45234;-66
2023/08/10 11:00:22;;;;;;;;;3.00;3.00;;;;;27.67;48.45;101346.31;5039909;28;45221;-66
2023/08/10 11:02:48;;;;;;;;;2.25;2.25;;;;;27.87;48.14;101343.88;5041849;28;45443;-66
2023/08/10 11:05:16;;;;;;;;;2.75;2.00;;;;;28.08;48.28;101346.78;5041518;28;45344;-66
2023/08/10 11:07:43;;;;;;;;;2.25;2.25;;;;;28.30;48.12;101361.25;5032779;28;45226;-66
2023/08/10 11:10:08;;;;;;;;;2.00;2.00;;;;;28.55;48.19;101354.75;5057232;28;45432;-66
2023/08/10 11:12:37;;;;;;;;;4.00;4.00;;;;;28.81;47.80;101349.09;5037766;28;45374;-66
2023/08/10 11:15:05;;;;;;;;;3.00;3.00;;;;;29.12;48.05;101354.63;5041494;28;45424;-66
2023/08/10 11:17:30;;;;;;;;;3.00;3.00;;;;;29.43;47.73;101362.94;5041587;28;45471;-66